createdAt,value
2022-12-09T00:01:06.161Z,2.75
2022-12-09T00:03:33.375Z,2.35
2022-12-09T00:06:05.105Z,2.37
2022-12-09T00:08:32.089Z,2.10
2022-12-09T00:10:59.512Z,2.10
2022-12-09T00:13:26.445Z,1.98
2022-12-09T00:15:53.505Z,1.10
2022-12-09T00:18:20.456Z,1.50
2022-12-09T00:20:47.454Z,4.95
2022-12-09T00:23:14.468Z,1.02
2022-12-09T00:25:41.412Z,0.57
2022-12-09T00:28:08.405Z,0.80
2022-12-09T00:30:35.991Z,0.98
2022-12-09T00:33:02.900Z,0.62
2022-12-09T00:35:29.903Z,0.62
2022-12-09T00:37:57.282Z,2.25
2022-12-09T00:40:24.450Z,0.88
2022-12-09T00:42:51.353Z,0.43
2022-12-09T00:45:18.753Z,0.75
2022-12-09T00:47:45.829Z,1.10
2022-12-09T00:50:13.081Z,0.57
2022-12-09T00:52:40.026Z,0.40
2022-12-09T00:55:07.468Z,0.70
2022-12-09T00:57:34.432Z,1.05
2022-12-09T01:00:01.464Z,0.60
2022-12-09T01:02:28.553Z,0.30
2022-12-09T01:04:55.802Z,0.47
2022-12-09T01:07:22.833Z,0.30
2022-12-09T01:09:49.726Z,0.30
2022-12-09T01:12:16.696Z,0.20
2022-12-09T01:14:43.751Z,0.20
2022-12-09T01:17:10.992Z,0.32
2022-12-09T01:19:40.353Z,0.20
2022-12-09T01:22:07.322Z,0.20
2022-12-09T01:24:34.277Z,0.30
2022-12-09T01:27:01.327Z,1.25
2022-12-09T01:29:28.293Z,0.40
2022-12-09T01:31:55.952Z,0.30
2022-12-09T01:34:23.179Z,0.30
2022-12-09T01:36:50.160Z,0.50
2022-12-09T01:39:17.337Z,0.30
2022-12-09T01:41:46.414Z,2.60
2022-12-09T01:44:21.907Z,0.20
2022-12-09T01:46:50.358Z,0.30
2022-12-09T01:49:31.386Z,0.55
2022-12-09T01:52:08.740Z,1.20
2022-12-09T01:54:37.674Z,0.30
2022-12-09T01:57:05.422Z,1.80
2022-12-09T01:59:32.785Z,0.20
2022-12-09T02:02:02.790Z,0.20
2022-12-09T02:04:33.646Z,0.20
2022-12-09T02:07:05.781Z,0.22
2022-12-09T02:09:32.801Z,0.30
2022-12-09T02:12:19.254Z,0.20
2022-12-09T02:14:55.001Z,0.40
2022-12-09T02:17:22.000Z,0.50
2022-12-09T02:20:05.352Z,1.00
2022-12-09T02:22:47.606Z,0.62
2022-12-09T02:25:17.460Z,0.40
2022-12-09T02:28:08.596Z,1.95
2022-12-09T02:30:54.420Z,0.30
2022-12-09T02:33:45.106Z,0.30
2022-12-09T02:36:18.375Z,0.73
2022-12-09T02:38:46.281Z,0.85
2022-12-09T02:41:21.902Z,2.72
2022-12-09T02:43:55.150Z,0.37
2022-12-09T02:46:23.986Z,1.85
2022-12-09T02:48:57.907Z,4.03
2022-12-09T02:51:29.301Z,3.08
2022-12-09T02:54:03.454Z,3.08
2022-12-09T02:56:31.700Z,1.67
2022-12-09T02:58:58.674Z,1.00
2022-12-09T03:01:42.083Z,2.17
2022-12-09T03:04:14.203Z,1.60
2022-12-09T03:06:58.562Z,1.52
2022-12-09T03:09:36.015Z,1.67
2022-12-09T03:12:08.890Z,0.98
2022-12-09T03:14:41.051Z,0.75
2022-12-09T03:17:18.879Z,2.30
2022-12-09T03:19:47.890Z,2.12
2022-12-09T03:22:19.578Z,3.97
2022-12-09T03:25:10.384Z,3.08
2022-12-09T03:28:04.865Z,5.40
2022-12-09T03:30:35.511Z,4.55
2022-12-09T03:33:04.643Z,4.55
2022-12-09T03:35:40.142Z,5.12
2022-12-09T03:38:11.018Z,3.22
2022-12-09T03:40:39.477Z,8.85
2022-12-09T03:43:16.475Z,3.33
2022-12-09T03:45:43.869Z,11.35
2022-12-09T03:48:11.666Z,7.95
2022-12-09T03:50:54.988Z,5.25
2022-12-09T03:53:27.632Z,10.70
2022-12-09T03:56:19.017Z,5.55
2022-12-09T03:58:47.617Z,5.28
2022-12-09T04:01:15.370Z,7.50
2022-12-09T04:03:46.234Z,8.20
2022-12-09T04:06:13.399Z,10.18
2022-12-09T04:08:40.417Z,11.15
2022-12-09T04:11:07.823Z,10.13
2022-12-09T04:13:34.957Z,10.27
2022-12-09T04:16:01.991Z,4.20
2022-12-09T04:18:29.104Z,9.35
2022-12-09T04:20:56.389Z,5.35
2022-12-09T04:23:23.341Z,6.07
2022-12-09T04:25:50.486Z,10.05
2022-12-09T04:28:17.879Z,4.95
2022-12-09T04:30:46.621Z,6.78
2022-12-09T04:33:13.982Z,7.32
2022-12-09T04:35:41.436Z,7.65
2022-12-09T04:38:08.430Z,8.70
2022-12-09T04:40:35.471Z,19.20
2022-12-09T04:43:02.535Z,6.40
2022-12-09T04:45:29.461Z,12.48
2022-12-09T04:47:58.184Z,10.63
2022-12-09T04:50:26.225Z,13.00
2022-12-09T04:52:53.463Z,8.77
2022-12-09T04:55:20.569Z,7.37
2022-12-09T04:57:47.568Z,9.30
2022-12-09T05:00:15.422Z,7.82
2022-12-09T05:02:42.966Z,7.20
2022-12-09T05:05:10.082Z,7.10
2022-12-09T05:07:38.064Z,11.02
2022-12-09T05:10:06.527Z,8.73
2022-12-09T05:12:34.446Z,8.57
2022-12-09T05:15:02.054Z,8.80
2022-12-09T05:17:29.163Z,6.75
2022-12-09T05:19:56.375Z,7.00
2022-12-09T05:22:23.478Z,6.03
2022-12-09T05:24:50.863Z,17.23
2022-12-09T05:27:17.946Z,8.68
2022-12-09T05:29:44.914Z,9.73
2022-12-09T05:32:12.504Z,13.35
2022-12-09T05:34:39.717Z,10.57
2022-12-09T05:37:07.115Z,4.72
2022-12-09T05:39:34.393Z,9.57
2022-12-09T05:42:01.813Z,7.12
2022-12-09T05:44:29.096Z,10.48
2022-12-09T05:46:56.463Z,9.88
2022-12-09T05:49:23.965Z,15.07
2022-12-09T05:51:51.404Z,12.00
2022-12-09T05:54:18.667Z,6.57
2022-12-09T05:56:48.418Z,8.52
2022-12-09T05:59:16.290Z,9.98
2022-12-09T06:01:43.405Z,11.27
2022-12-09T06:04:10.487Z,9.40
2022-12-09T06:06:37.957Z,11.88
2022-12-09T06:09:08.651Z,12.85
2022-12-09T06:11:36.212Z,9.13
2022-12-09T06:14:03.610Z,8.80
2022-12-09T06:16:30.812Z,10.20
2022-12-09T06:18:58.574Z,11.07
2022-12-09T06:21:26.053Z,10.65
2022-12-09T06:23:53.774Z,10.15
2022-12-09T06:26:27.632Z,7.62
2022-12-09T06:28:56.267Z,9.77
2022-12-09T06:31:23.949Z,10.15
2022-12-09T06:33:56.463Z,10.48
2022-12-09T06:36:26.127Z,10.57
2022-12-09T06:38:53.537Z,9.00
2022-12-09T06:41:20.761Z,16.20
2022-12-09T06:43:48.195Z,9.90
2022-12-09T06:46:18.016Z,7.55
2022-12-09T06:48:46.172Z,12.20
2022-12-09T06:51:13.647Z,9.82
2022-12-09T06:53:41.001Z,9.88
2022-12-09T06:56:12.231Z,12.65
2022-12-09T06:58:42.431Z,10.05
2022-12-09T07:01:30.127Z,9.52
2022-12-09T07:03:57.765Z,10.65
2022-12-09T07:06:39.322Z,9.25
2022-12-09T07:09:09.551Z,7.95
2022-12-09T07:11:37.585Z,13.65
2022-12-09T07:14:05.996Z,10.02
2022-12-09T07:16:33.581Z,10.40
2022-12-09T07:19:01.744Z,9.88
2022-12-09T07:21:29.049Z,9.38
2022-12-09T07:24:00.009Z,6.40
2022-12-09T07:26:27.488Z,11.20
2022-12-09T07:28:54.510Z,5.65
2022-12-09T07:31:26.419Z,8.85
2022-12-09T07:33:56.484Z,5.57
2022-12-09T07:36:27.135Z,2.97
2022-12-09T07:38:59.459Z,4.70
2022-12-09T07:41:27.424Z,2.50
2022-12-09T07:43:55.319Z,3.20
2022-12-09T07:46:24.326Z,4.50
2022-12-09T07:48:51.985Z,2.72
2022-12-09T07:51:19.345Z,2.78
2022-12-09T07:53:46.875Z,7.47
2022-12-09T07:56:15.675Z,2.50
2022-12-09T07:58:44.649Z,1.83
2022-12-09T08:01:17.337Z,3.33
2022-12-09T08:03:45.217Z,3.42
2022-12-09T08:06:14.960Z,7.40
2022-12-09T08:08:43.375Z,4.03
2022-12-09T08:11:13.782Z,4.75
2022-12-09T08:13:43.913Z,1.98
2022-12-09T08:16:13.415Z,4.55
2022-12-09T08:18:42.073Z,6.45
2022-12-09T08:21:24.281Z,4.47
2022-12-09T08:23:52.208Z,1.67
2022-12-09T08:26:22.280Z,2.70
2022-12-09T08:28:50.385Z,0.88
2022-12-09T08:31:20.644Z,1.90
2022-12-09T08:33:49.085Z,3.42
2022-12-09T08:36:37.198Z,7.15
2022-12-09T08:39:06.057Z,6.25
2022-12-09T08:41:38.530Z,3.03
2022-12-09T08:44:20.219Z,6.30
2022-12-09T08:46:50.190Z,5.00
2022-12-09T08:49:21.302Z,1.17
2022-12-09T08:51:50.206Z,2.28
2022-12-09T08:54:18.101Z,3.05
2022-12-09T08:56:46.972Z,4.40
2022-12-09T08:59:16.135Z,2.22
2022-12-09T09:01:43.935Z,1.00
2022-12-09T09:04:15.199Z,0.90
2022-12-09T09:06:44.309Z,0.80
2022-12-09T09:09:13.391Z,1.45
2022-12-09T09:11:42.111Z,0.88
2022-12-09T09:14:11.034Z,1.15
2022-12-09T09:16:41.156Z,2.50
2022-12-09T09:19:09.804Z,1.83
2022-12-09T09:21:37.196Z,1.83
2022-12-09T09:24:10.414Z,3.70
2022-12-09T09:26:41.642Z,1.55
2022-12-09T09:29:11.900Z,1.83
2022-12-09T09:31:39.291Z,4.15
2022-12-09T09:34:06.585Z,0.73
2022-12-09T09:36:34.114Z,1.33
2022-12-09T09:39:02.225Z,2.85
2022-12-09T09:41:43.773Z,5.07
2022-12-09T09:44:23.427Z,0.40
2022-12-09T09:46:52.938Z,0.52
2022-12-09T09:49:55.397Z,1.33
2022-12-09T09:52:25.400Z,0.52
2022-12-09T09:54:53.382Z,1.55
2022-12-09T09:57:26.306Z,2.58
2022-12-09T10:00:27.855Z,2.80
2022-12-09T10:03:10.497Z,2.95
2022-12-09T10:05:53.059Z,5.00
2022-12-09T10:08:38.804Z,3.37
2022-12-09T10:11:48.171Z,1.65
2022-12-09T10:14:20.323Z,2.05
2022-12-09T10:17:09.474Z,2.00
2022-12-09T10:19:43.648Z,1.20
2022-12-09T10:22:22.058Z,1.23
2022-12-09T10:24:53.487Z,3.00
2022-12-09T10:30:01.029Z,2.47
2022-12-09T10:32:37.087Z,1.70
2022-12-09T10:35:25.763Z,0.90
2022-12-09T10:37:55.719Z,1.08
2022-12-09T10:40:36.919Z,1.85
2022-12-09T10:43:37.410Z,2.37
2022-12-09T10:46:17.890Z,0.75
2022-12-09T10:48:49.727Z,1.02
2022-12-09T10:51:25.960Z,1.60
2022-12-09T10:53:56.139Z,0.55
2022-12-09T10:56:27.461Z,0.70
2022-12-09T10:59:29.979Z,0.40
2022-12-09T11:02:11.093Z,0.95
2022-12-09T11:04:44.201Z,0.40
2022-12-09T11:07:26.153Z,0.57
2022-12-09T11:09:56.652Z,0.57
2022-12-09T11:12:27.448Z,1.35
2022-12-09T11:15:02.096Z,0.35
2022-12-09T11:17:33.281Z,0.55
2022-12-09T11:20:07.083Z,0.70
2022-12-09T11:22:40.822Z,0.40
2022-12-09T11:25:17.545Z,1.73
2022-12-09T11:27:57.832Z,0.57
2022-12-09T11:30:34.170Z,1.15
2022-12-09T11:33:15.374Z,0.43
2022-12-09T11:35:45.850Z,1.85
2022-12-09T11:38:23.047Z,1.23
2022-12-09T11:41:11.106Z,1.62
2022-12-09T11:43:58.313Z,3.20
2022-12-09T11:46:31.624Z,3.00
2022-12-09T11:49:12.683Z,1.65
2022-12-09T11:51:42.842Z,1.30
2022-12-09T11:54:25.285Z,0.50
2022-12-09T11:56:53.635Z,0.85
2022-12-09T11:59:38.199Z,0.50
2022-12-09T12:02:35.085Z,2.80
2022-12-09T12:05:21.809Z,1.48
2022-12-09T12:08:27.014Z,0.55
2022-12-09T12:10:59.737Z,1.52
2022-12-09T12:13:35.435Z,1.10
2022-12-09T12:16:11.153Z,1.55
2022-12-09T12:18:46.821Z,0.93
2022-12-09T12:21:21.724Z,0.30
2022-12-09T12:24:07.355Z,1.40
2022-12-09T12:27:13.129Z,0.95
2022-12-09T12:29:49.759Z,2.08
2022-12-09T12:32:41.638Z,1.90
2022-12-09T12:35:33.639Z,0.65
2022-12-09T12:38:23.549Z,0.70
2022-12-09T12:41:16.973Z,1.25
2022-12-09T12:44:11.703Z,0.88
2022-12-09T12:46:38.689Z,2.05
2022-12-09T12:50:03.180Z,1.62
2022-12-09T12:52:56.947Z,1.55
2022-12-09T12:55:47.620Z,0.62
2022-12-09T12:58:29.581Z,1.17
2022-12-09T13:01:14.770Z,0.93
2022-12-09T13:03:53.467Z,1.80
2022-12-09T13:06:33.797Z,1.45
2022-12-09T13:09:06.249Z,1.08
2022-12-09T13:11:59.691Z,0.70
2022-12-09T13:14:33.001Z,1.17
2022-12-09T13:17:05.335Z,2.08
2022-12-09T13:19:41.173Z,0.50
2022-12-09T13:22:17.466Z,1.67
2022-12-09T13:24:59.816Z,2.83
2022-12-09T13:27:43.403Z,0.52
2022-12-09T13:30:21.500Z,2.90
2022-12-09T13:33:08.627Z,0.75
2022-12-09T13:36:06.619Z,0.40
2022-12-09T13:38:39.813Z,0.50
2022-12-09T13:41:31.847Z,1.58
2022-12-09T13:44:13.444Z,0.57
2022-12-09T13:46:43.000Z,1.30
2022-12-09T13:49:17.824Z,0.60
2022-12-09T13:51:53.830Z,0.93
2022-12-09T13:54:23.869Z,1.75
2022-12-09T13:57:14.109Z,0.57
2022-12-09T13:59:44.979Z,0.60
2022-12-09T14:02:24.584Z,0.57
2022-12-09T14:05:06.863Z,0.60
2022-12-09T14:07:47.467Z,0.40
2022-12-09T14:10:50.910Z,0.50
2022-12-09T14:13:30.912Z,0.70
2022-12-09T14:16:29.040Z,0.40
2022-12-09T14:19:41.973Z,0.77
2022-12-09T14:22:18.696Z,0.57
2022-12-09T14:24:49.697Z,1.00
2022-12-09T14:27:33.143Z,0.62
2022-12-09T14:30:21.292Z,0.88
2022-12-09T14:32:51.195Z,1.55
2022-12-09T14:35:41.861Z,0.90
2022-12-09T14:38:31.419Z,1.30
2022-12-09T14:41:03.627Z,0.70
2022-12-09T14:43:50.481Z,0.70
2022-12-09T14:46:31.669Z,1.45
2022-12-09T14:49:21.207Z,1.60
2022-12-09T14:51:55.159Z,0.70
2022-12-09T14:54:36.959Z,0.80
2022-12-09T14:57:16.040Z,3.22
2022-12-09T14:59:50.543Z,0.88
2022-12-09T15:02:24.276Z,1.30
2022-12-09T15:04:53.849Z,1.50
2022-12-09T15:07:46.031Z,3.00
2022-12-09T15:10:34.489Z,1.08
2022-12-09T15:13:02.222Z,2.10
2022-12-09T15:15:38.185Z,1.73
2022-12-09T15:18:17.940Z,5.80
2022-12-09T15:20:50.960Z,2.90
2022-12-09T15:23:34.678Z,1.20
2022-12-09T15:26:05.277Z,2.30
2022-12-09T15:28:37.835Z,0.75
2022-12-09T15:31:18.617Z,1.02
2022-12-09T15:33:52.135Z,0.73
2022-12-09T15:36:27.218Z,0.70
2022-12-09T15:38:59.178Z,1.23
2022-12-09T15:41:52.802Z,1.62
2022-12-09T15:44:22.248Z,0.82
2022-12-09T15:46:51.291Z,0.40
2022-12-09T15:49:24.042Z,0.68
2022-12-09T15:51:55.472Z,1.62
2022-12-09T15:54:34.633Z,1.12
2022-12-09T15:57:04.182Z,0.55
2022-12-09T15:59:40.509Z,1.35
2022-12-09T16:02:11.147Z,0.47
2022-12-09T16:04:49.999Z,0.40
2022-12-09T16:07:20.275Z,0.62
2022-12-09T16:10:06.412Z,0.50
2022-12-09T16:12:34.571Z,0.50
2022-12-09T16:15:02.758Z,2.00
2022-12-09T16:17:38.209Z,2.80
2022-12-09T16:20:30.017Z,1.48
2022-12-09T16:22:57.357Z,0.40
2022-12-09T16:25:27.422Z,0.30
2022-12-09T16:28:03.341Z,0.62
2022-12-09T16:30:33.101Z,0.95
2022-12-09T16:33:02.874Z,0.47
2022-12-09T16:36:04.132Z,1.77
2022-12-09T16:38:33.728Z,1.80
2022-12-09T16:41:04.161Z,1.42
2022-12-09T16:43:31.776Z,1.08
2022-12-09T16:46:27.398Z,1.45
2022-12-09T16:48:54.294Z,1.35
2022-12-09T16:51:25.078Z,2.33
2022-12-09T16:53:53.684Z,1.95
2022-12-09T16:56:23.214Z,1.40
2022-12-09T16:58:50.153Z,1.83
2022-12-09T17:01:19.548Z,1.15
2022-12-09T17:03:57.645Z,3.08
2022-12-09T17:06:24.878Z,1.87
2022-12-09T17:08:51.880Z,1.40
2022-12-09T17:11:21.573Z,3.40
2022-12-09T17:13:49.918Z,0.80
2022-12-09T17:16:17.743Z,1.70
2022-12-09T17:18:44.813Z,1.25
2022-12-09T17:21:13.914Z,1.10
2022-12-09T17:23:41.816Z,4.95
2022-12-09T17:26:19.225Z,6.47
2022-12-09T17:28:47.584Z,3.12
2022-12-09T17:31:17.368Z,5.05
2022-12-09T17:33:44.525Z,3.55
2022-12-09T17:36:15.543Z,2.83
2022-12-09T17:38:43.131Z,2.35
2022-12-09T17:41:14.839Z,6.30
2022-12-09T17:43:42.608Z,1.70
2022-12-09T17:46:11.011Z,1.08
2022-12-09T17:48:40.108Z,1.85
2022-12-09T17:51:09.002Z,2.75
2022-12-09T17:53:40.959Z,4.32
2022-12-09T17:56:14.109Z,1.23
2022-12-09T17:58:41.258Z,1.67
2022-12-09T18:01:20.294Z,2.87
2022-12-09T18:03:56.182Z,2.62
2022-12-09T18:06:28.536Z,1.60
2022-12-09T18:08:55.646Z,1.90
2022-12-09T18:11:23.290Z,1.48
2022-12-09T18:13:50.288Z,3.25
2022-12-09T18:16:18.079Z,1.37
2022-12-09T18:18:45.510Z,2.05
2022-12-09T18:21:15.883Z,2.90
2022-12-09T18:23:43.629Z,2.87
2022-12-09T18:26:13.569Z,1.55
2022-12-09T18:28:40.645Z,2.55
2022-12-09T18:31:09.678Z,2.75
2022-12-09T18:33:37.932Z,1.37
2022-12-09T18:36:14.716Z,1.00
2022-12-09T18:38:42.541Z,2.47
2022-12-09T18:41:14.832Z,1.60
2022-12-09T18:43:43.756Z,1.35
2022-12-09T18:46:25.726Z,1.62
2022-12-09T18:48:58.599Z,3.30
2022-12-09T18:51:26.381Z,2.00
2022-12-09T18:53:53.583Z,2.87
2022-12-09T18:56:20.540Z,4.80
2022-12-09T18:59:05.826Z,3.75
2022-12-09T19:01:35.730Z,2.30
2022-12-09T19:04:04.289Z,2.40
2022-12-09T19:06:37.773Z,3.80
2022-12-09T19:09:07.557Z,3.22
2022-12-09T19:11:36.504Z,1.60
2022-12-09T19:14:05.328Z,2.20
2022-12-09T19:16:32.712Z,1.23
2022-12-09T19:19:05.477Z,2.03
2022-12-09T19:21:35.959Z,1.52
2022-12-09T19:24:02.929Z,1.85
2022-12-09T19:26:32.624Z,3.35
2022-12-09T19:29:05.655Z,1.60
2022-12-09T19:31:38.306Z,0.50
2022-12-09T19:34:08.160Z,1.62
2022-12-09T19:36:35.756Z,3.42
2022-12-09T19:39:04.781Z,1.40
2022-12-09T19:41:31.994Z,1.55
2022-12-09T19:44:00.972Z,1.30
2022-12-09T19:46:28.778Z,1.00
2022-12-09T19:48:56.412Z,2.35
2022-12-09T19:51:24.564Z,0.75
2022-12-09T19:53:56.586Z,0.90
2022-12-09T19:56:24.289Z,1.00
2022-12-09T19:58:51.985Z,1.12
2022-12-09T20:01:22.962Z,5.20
2022-12-09T20:03:52.414Z,2.05
2022-12-09T20:06:21.406Z,1.77
2022-12-09T20:08:48.572Z,1.98
2022-12-09T20:11:18.532Z,2.45
2022-12-09T20:13:46.564Z,3.58
2022-12-09T20:16:16.973Z,2.53
2022-12-09T20:18:43.961Z,4.12
2022-12-09T20:21:13.343Z,3.78
2022-12-09T20:23:42.046Z,2.65
2022-12-09T20:26:12.152Z,0.80
2022-12-09T20:28:40.898Z,1.65
2022-12-09T20:31:10.927Z,1.00
2022-12-09T20:33:42.231Z,1.62
2022-12-09T20:36:15.796Z,1.60
2022-12-09T20:38:43.833Z,2.12
2022-12-09T20:41:13.003Z,1.20
2022-12-09T20:43:43.755Z,2.08
2022-12-09T20:46:16.927Z,0.82
2022-12-09T20:48:44.578Z,1.77
2022-12-09T20:51:18.952Z,0.65
2022-12-09T20:53:47.676Z,0.60
2022-12-09T20:56:15.787Z,2.35
2022-12-09T20:58:44.587Z,0.95
2022-12-09T21:01:14.461Z,1.58
2022-12-09T21:03:41.968Z,2.62
2022-12-09T21:06:10.414Z,1.30
2022-12-09T21:08:37.405Z,0.65
2022-12-09T21:11:06.818Z,2.60
2022-12-09T21:13:37.411Z,1.83
2022-12-09T21:16:10.634Z,1.85
2022-12-09T21:18:37.912Z,2.58
2022-12-09T21:21:06.198Z,1.58
2022-12-09T21:23:35.562Z,0.50
2022-12-09T21:26:05.337Z,0.55
2022-12-09T21:28:32.662Z,0.50
2022-12-09T21:30:59.982Z,0.85
2022-12-09T21:33:26.872Z,1.95
2022-12-09T21:35:53.882Z,2.17
2022-12-09T21:38:21.099Z,1.00
2022-12-09T21:40:48.636Z,1.00
2022-12-09T21:43:15.571Z,0.60
2022-12-09T21:45:42.582Z,1.12
2022-12-09T21:48:09.522Z,0.65
2022-12-09T21:50:36.454Z,0.88
2022-12-09T21:53:03.652Z,1.50
2022-12-09T21:55:33.021Z,0.50
2022-12-09T21:57:59.923Z,1.05
2022-12-09T22:00:26.860Z,0.77
2022-12-09T22:02:54.465Z,0.77
2022-12-09T22:05:21.430Z,0.62
2022-12-09T22:07:50.064Z,1.87
2022-12-09T22:10:17.104Z,1.33
2022-12-09T22:12:44.278Z,0.93
2022-12-09T22:15:11.487Z,0.88
2022-12-09T22:17:38.988Z,1.55
2022-12-09T22:20:44.461Z,0.70
2022-12-09T22:22:54.551Z,0.65
2022-12-09T22:25:21.520Z,0.95
2022-12-09T22:27:48.454Z,0.98
2022-12-09T22:30:15.406Z,0.82
2022-12-09T22:32:45.401Z,0.52
2022-12-09T22:35:16.202Z,2.65
2022-12-09T22:37:44.176Z,1.65
2022-12-09T22:40:11.894Z,0.57
2022-12-09T22:42:38.855Z,0.95
2022-12-09T22:45:06.724Z,2.92
2022-12-09T22:47:33.679Z,1.95
2022-12-09T22:50:00.825Z,1.65
2022-12-09T22:52:27.734Z,2.42
2022-12-09T22:54:54.634Z,4.30
2022-12-09T22:57:21.522Z,3.62
2022-12-09T22:59:48.491Z,2.12
2022-12-09T23:02:15.721Z,2.62
2022-12-09T23:04:42.752Z,0.85
2022-12-09T23:07:09.652Z,1.95
2022-12-09T23:09:36.629Z,3.50
2022-12-09T23:12:03.758Z,2.03
2022-12-09T23:14:30.688Z,1.52
2022-12-09T23:16:57.696Z,1.77
2022-12-09T23:19:24.741Z,0.70
2022-12-09T23:21:51.645Z,1.55
2022-12-09T23:24:24.635Z,0.95
2022-12-09T23:26:55.778Z,3.03
2022-12-09T23:29:23.084Z,3.72
2022-12-09T23:31:50.081Z,2.33
2022-12-09T23:34:17.456Z,4.37
2022-12-09T23:36:45.325Z,1.87
2022-12-09T23:39:15.814Z,1.48
2022-12-09T23:41:44.146Z,2.30
2022-12-09T23:44:13.505Z,2.08
2022-12-09T23:46:40.763Z,3.28
2022-12-09T23:49:07.994Z,3.70
2022-12-09T23:51:37.742Z,2.10
2022-12-09T23:54:06.606Z,2.80
2022-12-09T23:56:38.612Z,1.17
2022-12-09T23:59:08.047Z,2.50
